createdAt,value
2022-10-23T00:00:17.179Z,97310.94
2022-10-23T00:02:44.331Z,97307.69
2022-10-23T00:05:11.517Z,97320.38
2022-10-23T00:07:38.424Z,97320.38
2022-10-23T00:10:05.470Z,97320.09
2022-10-23T00:12:32.533Z,97323.63
2022-10-23T00:14:59.250Z,97326.59
2022-10-23T00:17:26.125Z,97335.38
2022-10-23T00:19:52.704Z,97331.03
2022-10-23T00:22:19.474Z,97332.72
2022-10-23T00:24:46.045Z,97350.56
2022-10-23T00:27:12.647Z,97354.41
2022-10-23T00:29:39.460Z,97350.44
2022-10-23T00:32:06.087Z,97359.09
2022-10-23T00:34:32.740Z,97360.56
2022-10-23T00:36:59.364Z,97363.28
2022-10-23T00:39:26.071Z,97349.63
2022-10-23T00:41:52.845Z,97363.06
2022-10-23T00:44:22.243Z,97368.19
2022-10-23T00:46:49.727Z,97361.75
2022-10-23T00:49:17.098Z,97367.16
2022-10-23T00:51:47.523Z,97381.88
2022-10-23T00:54:25.364Z,97379.25
2022-10-23T00:56:58.924Z,97374.88
2022-10-23T00:59:26.742Z,97377.38
2022-10-23T01:01:53.539Z,97371.16
2022-10-23T01:04:21.263Z,97372.78
2022-10-23T01:07:17.603Z,97371.16
2022-10-23T01:09:53.057Z,97358.47
2022-10-23T01:12:34.532Z,97367.41
2022-10-23T01:15:16.415Z,97357.66
2022-10-23T01:17:52.039Z,97367.94
2022-10-23T01:20:37.003Z,97371.16
2022-10-23T01:23:12.699Z,97372.78
2022-10-23T01:25:57.615Z,97371.97
2022-10-23T01:28:44.123Z,97373.06
2022-10-23T01:31:16.452Z,97367.13
2022-10-23T01:33:51.468Z,97374.66
2022-10-23T01:36:21.357Z,97389.09
2022-10-23T01:38:57.533Z,97387.16
2022-10-23T01:41:27.911Z,97389.66
2022-10-23T01:44:01.718Z,97395.59
2022-10-23T01:46:30.286Z,97390.25
2022-10-23T01:49:00.522Z,97395.59
2022-10-23T01:51:31.157Z,97394.78
2022-10-23T01:54:00.617Z,97400.22
2022-10-23T01:56:32.149Z,97409.19
2022-10-23T01:59:03.500Z,97407.25
2022-10-23T02:01:32.635Z,97401.63
2022-10-23T02:04:01.211Z,97413.00
2022-10-23T02:06:28.784Z,97403.75
2022-10-23T02:08:56.152Z,97415.94
2022-10-23T02:11:23.146Z,97413.00
2022-10-23T02:14:02.202Z,97431.56
2022-10-23T02:16:37.803Z,97434.00
2022-10-23T02:19:29.164Z,97424.53
2022-10-23T02:22:04.993Z,97430.19
2022-10-23T02:24:36.646Z,97430.97
2022-10-23T02:27:09.904Z,97421.06
2022-10-23T02:29:47.443Z,97440.25
2022-10-23T02:32:15.334Z,97448.09
2022-10-23T02:34:42.156Z,97455.97
2022-10-23T02:37:08.821Z,97458.94
2022-10-23T02:39:35.831Z,97461.16
2022-10-23T02:42:23.473Z,97461.44
2022-10-23T02:44:50.215Z,97474.44
2022-10-23T02:47:32.127Z,97487.22
2022-10-23T02:50:14.238Z,97487.31
2022-10-23T02:52:53.561Z,97482.47
2022-10-23T02:55:35.680Z,97492.75
2022-10-23T02:58:14.358Z,97493.59
2022-10-23T03:00:45.515Z,97493.59
2022-10-23T03:03:17.373Z,97501.75
2022-10-23T03:05:47.275Z,97503.16
2022-10-23T03:08:14.852Z,97511.81
2022-10-23T03:10:42.890Z,97519.16
2022-10-23T03:13:12.748Z,97515.09
2022-10-23T03:15:39.491Z,97511.81
2022-10-23T03:18:06.221Z,97515.41
2022-10-23T03:20:33.067Z,97502.19
2022-10-23T03:22:59.749Z,97521.41
2022-10-23T03:25:26.397Z,97523.59
2022-10-23T03:27:53.176Z,97528.00
2022-10-23T03:30:20.077Z,97527.44
2022-10-23T03:32:46.797Z,97531.25
2022-10-23T03:35:13.505Z,97542.91
2022-10-23T03:37:40.238Z,97527.44
2022-10-23T03:40:07.655Z,97528.53
2022-10-23T03:42:34.500Z,97541.31
2022-10-23T03:45:01.074Z,97529.13
2022-10-23T03:47:30.230Z,97543.00
2022-10-23T03:49:56.989Z,97545.72
2022-10-23T03:54:51.300Z,97535.53
2022-10-23T03:57:18.412Z,97559.41
2022-10-23T03:59:45.028Z,97552.72
2022-10-23T04:02:11.730Z,97564.94
2022-10-23T04:04:38.512Z,97562.56
2022-10-23T04:07:05.263Z,97566.22
2022-10-23T04:09:31.931Z,97577.00
2022-10-23T04:11:58.611Z,97582.13
2022-10-23T04:14:26.054Z,97584.03
2022-10-23T04:16:52.733Z,97575.97
2022-10-23T04:19:19.416Z,97578.63
2022-10-23T04:21:46.054Z,97585.44
2022-10-23T04:24:12.685Z,97585.22
2022-10-23T04:26:39.604Z,97588.44
2022-10-23T04:29:06.327Z,97587.63
2022-10-23T04:31:33.158Z,97584.66
2022-10-23T04:33:59.970Z,97589.00
2022-10-23T04:36:26.645Z,97594.44
2022-10-23T04:38:53.397Z,97599.84
2022-10-23T04:41:20.034Z,97598.56
2022-10-23T04:43:46.675Z,97608.00
2022-10-23T04:46:13.308Z,97603.69
2022-10-23T04:48:39.972Z,97609.97
2022-10-23T04:51:06.839Z,97619.47
2022-10-23T04:53:33.760Z,97615.63
2022-10-23T04:56:00.898Z,97604.78
2022-10-23T04:58:28.935Z,97614.53
2022-10-23T05:00:56.403Z,97615.34
2022-10-23T05:03:25.366Z,97615.34
2022-10-23T05:05:56.521Z,97625.38
2022-10-23T05:08:24.077Z,97631.63
2022-10-23T05:10:51.285Z,97632.19
2022-10-23T05:13:19.899Z,97635.16
2022-10-23T05:15:58.544Z,97635.44
2022-10-23T05:18:29.330Z,97633.03
2022-10-23T05:21:06.963Z,97641.69
2022-10-23T05:23:36.681Z,97644.94
2022-10-23T05:26:04.545Z,97642.25
2022-10-23T05:28:31.232Z,97645.50
2022-10-23T05:31:00.792Z,97643.63
2022-10-23T05:33:28.294Z,97653.91
2022-10-23T05:35:55.261Z,97658.53
2022-10-23T05:38:22.652Z,97667.19
2022-10-23T05:40:51.734Z,97669.63
2022-10-23T05:43:18.492Z,97670.44
2022-10-23T05:45:45.130Z,97681.00
2022-10-23T05:48:22.898Z,97683.72
2022-10-23T05:51:11.834Z,97684.53
2022-10-23T05:53:41.675Z,97681.81
2022-10-23T05:56:09.782Z,97688.59
2022-10-23T05:58:36.922Z,97698.06
2022-10-23T06:01:08.999Z,97702.97
2022-10-23T06:03:37.079Z,97700.53
2022-10-23T06:06:04.268Z,97707.28
2022-10-23T06:08:32.160Z,97711.13
2022-10-23T06:10:59.047Z,97712.72
2022-10-23T06:13:25.872Z,97708.91
2022-10-23T06:15:52.515Z,97717.53
2022-10-23T06:18:19.160Z,97714.56
2022-10-23T06:20:45.786Z,97714.78
2022-10-23T06:23:12.449Z,97725.13
2022-10-23T06:25:39.018Z,97720.72
2022-10-23T06:28:05.660Z,97729.19
2022-10-23T06:30:32.390Z,97727.84
2022-10-23T06:33:02.141Z,97738.66
2022-10-23T06:35:31.284Z,97742.44
2022-10-23T06:37:58.181Z,97731.59
2022-10-23T06:40:24.751Z,97748.94
2022-10-23T06:42:51.332Z,97740.78
2022-10-23T06:45:18.026Z,97733.25
2022-10-23T06:47:44.918Z,97738.06
2022-10-23T06:50:15.266Z,97728.84
2022-10-23T06:52:46.966Z,97732.88
2022-10-23T06:55:14.938Z,97731.03
2022-10-23T06:57:42.127Z,97752.13
2022-10-23T07:00:10.273Z,97755.66
2022-10-23T07:02:37.042Z,97753.78
2022-10-23T07:05:04.252Z,97756.50
2022-10-23T07:07:31.318Z,97756.50
2022-10-23T07:09:58.174Z,97757.31
2022-10-23T07:12:25.296Z,97762.19
2022-10-23T07:14:51.986Z,97769.53
2022-10-23T07:17:18.541Z,97753.81
2022-10-23T07:19:46.704Z,97758.44
2022-10-23T07:22:15.884Z,97764.16
2022-10-23T07:24:42.914Z,97770.66
2022-10-23T07:27:09.977Z,97767.44
2022-10-23T07:29:37.128Z,97767.44
2022-10-23T07:32:04.736Z,97775.53
2022-10-23T07:34:32.219Z,97780.94
2022-10-23T07:36:58.930Z,97778.78
2022-10-23T07:39:25.776Z,97778.47
2022-10-23T07:41:52.618Z,97775.19
2022-10-23T07:44:21.054Z,97781.97
2022-10-23T07:46:49.865Z,97778.69
2022-10-23T07:49:16.763Z,97789.22
2022-10-23T07:51:45.528Z,97784.00
2022-10-23T07:54:15.459Z,97787.78
2022-10-23T07:56:42.293Z,97789.13
2022-10-23T07:59:12.988Z,97774.19
2022-10-23T08:01:40.842Z,97791.75
2022-10-23T08:04:08.966Z,97785.22
2022-10-23T08:06:36.000Z,97797.66
2022-10-23T08:09:06.282Z,97801.75
2022-10-23T08:11:35.872Z,97793.34
2022-10-23T08:14:06.416Z,97798.50
2022-10-23T08:16:34.917Z,97797.94
2022-10-23T08:19:02.316Z,97805.00
2022-10-23T08:21:29.009Z,97809.88
2022-10-23T08:23:57.936Z,97811.22
2022-10-23T08:26:26.255Z,97816.91
2022-10-23T08:28:53.675Z,97821.22
2022-10-23T08:31:21.575Z,97820.16
2022-10-23T08:36:24.552Z,97823.13
2022-10-23T08:38:55.706Z,97821.47
2022-10-23T08:41:25.536Z,97837.50
2022-10-23T08:44:01.164Z,97834.25
2022-10-23T08:46:33.356Z,97840.22
2022-10-23T08:49:18.542Z,97838.88
2022-10-23T08:51:48.924Z,97839.41
2022-10-23T08:54:47.660Z,97837.50
2022-10-23T08:57:17.610Z,97848.06
2022-10-23T08:59:58.915Z,97848.63
2022-10-23T09:02:34.004Z,97844.50
2022-10-23T09:05:00.902Z,97845.66
2022-10-23T09:08:06.329Z,97857.00
2022-10-23T09:10:51.762Z,97861.34
2022-10-23T09:13:41.619Z,97852.03
2022-10-23T09:16:22.831Z,97860.13
2022-10-23T09:18:50.502Z,97857.34
2022-10-23T09:21:17.316Z,97851.91
2022-10-23T09:23:44.114Z,97849.72
2022-10-23T09:26:18.628Z,97855.34
2022-10-23T09:28:50.631Z,97857.72
2022-10-23T09:31:19.575Z,97855.53
2022-10-23T09:33:57.752Z,97860.91
2022-10-23T09:36:27.584Z,97864.66
2022-10-23T09:38:56.499Z,97867.94
2022-10-23T09:41:28.840Z,97860.03
2022-10-23T09:44:01.267Z,97867.34
2022-10-23T09:46:44.766Z,97876.03
2022-10-23T09:49:26.958Z,97865.72
2022-10-23T09:52:24.751Z,97857.03
2022-10-23T09:54:58.420Z,97868.09
2022-10-23T09:57:38.288Z,97850.41
2022-10-23T10:00:07.337Z,97859.13
2022-10-23T10:02:36.783Z,97857.75
2022-10-23T10:05:29.776Z,97860.91
2022-10-23T10:08:10.939Z,97859.22
2022-10-23T10:10:45.078Z,97857.81
2022-10-23T10:13:34.235Z,97853.13
2022-10-23T10:16:11.788Z,97853.38
2022-10-23T10:19:15.787Z,97858.72
2022-10-23T10:22:17.459Z,97866.84
2022-10-23T10:25:03.372Z,97869.50
2022-10-23T10:27:42.323Z,97865.88
2022-10-23T10:30:22.586Z,97868.88
2022-10-23T10:33:03.154Z,97875.66
2022-10-23T10:36:08.354Z,97870.41
2022-10-23T10:38:34.940Z,97876.41
2022-10-23T10:41:22.862Z,97863.59
2022-10-23T10:44:14.436Z,97869.84
2022-10-23T10:46:49.734Z,97857.91
2022-10-23T10:49:27.075Z,97867.91
2022-10-23T10:52:25.016Z,97854.00
2022-10-23T10:55:05.489Z,97852.31
2022-10-23T10:57:46.681Z,97866.13
2022-10-23T11:00:22.112Z,97862.38
2022-10-23T11:02:53.556Z,97864.03
2022-10-23T11:05:25.584Z,97868.88
2022-10-23T11:08:13.689Z,97863.72
2022-10-23T11:10:45.865Z,97866.66
2022-10-23T11:13:29.225Z,97854.97
2022-10-23T11:16:01.405Z,97868.06
2022-10-23T11:18:31.049Z,97871.97
2022-10-23T11:21:14.738Z,97872.13
2022-10-23T11:27:08.969Z,97859.41
2022-10-23T11:29:41.699Z,97862.72
2022-10-23T11:32:44.477Z,97860.28
2022-10-23T11:35:45.244Z,97863.31
2022-10-23T11:38:24.291Z,97868.16
2022-10-23T11:40:53.999Z,97874.94
2022-10-23T11:43:33.828Z,97887.91
2022-10-23T11:46:31.954Z,97879.22
2022-10-23T11:49:02.372Z,97880.28
2022-10-23T11:51:29.310Z,97882.69
2022-10-23T11:54:25.048Z,97886.97
2022-10-23T11:57:11.763Z,97876.91
2022-10-23T11:59:48.124Z,97886.53
2022-10-23T12:02:34.414Z,97889.22
2022-10-23T12:05:22.721Z,97890.50
2022-10-23T12:07:55.959Z,97891.53
2022-10-23T12:10:55.557Z,97883.31
2022-10-23T12:13:45.486Z,97885.00
2022-10-23T12:16:13.122Z,97890.16
2022-10-23T12:18:53.827Z,97878.22
2022-10-23T12:21:28.511Z,97880.81
2022-10-23T12:24:31.713Z,97884.19
2022-10-23T12:27:27.484Z,97891.19
2022-10-23T12:30:33.259Z,97890.00
2022-10-23T12:32:59.791Z,97891.94
2022-10-23T12:36:00.799Z,97893.84
2022-10-23T12:38:33.853Z,97897.16
2022-10-23T12:41:08.828Z,97909.13
2022-10-23T12:43:38.255Z,97911.38
2022-10-23T12:46:28.294Z,97904.31
2022-10-23T12:48:59.312Z,97902.16
2022-10-23T12:51:32.116Z,97904.34
2022-10-23T12:53:59.151Z,97891.94
2022-10-23T12:56:29.443Z,97891.09
2022-10-23T12:59:02.152Z,97901.78
2022-10-23T13:01:31.552Z,97902.59
2022-10-23T13:04:34.915Z,97893.69
2022-10-23T13:07:03.092Z,97904.59
2022-10-23T13:09:42.043Z,97902.66
2022-10-23T13:12:18.574Z,97902.38
2022-10-23T13:15:15.906Z,97899.34
2022-10-23T13:18:02.570Z,97900.16
2022-10-23T13:20:29.196Z,97896.31
2022-10-23T13:23:21.798Z,97903.69
2022-10-23T13:26:00.388Z,97902.00
2022-10-23T13:28:31.416Z,97897.59
2022-10-23T13:31:10.138Z,97898.84
2022-10-23T13:33:48.300Z,97906.41
2022-10-23T13:36:14.984Z,97917.31
2022-10-23T13:38:47.121Z,97910.78
2022-10-23T13:41:16.924Z,97912.63
2022-10-23T13:43:45.315Z,97924.31
2022-10-23T13:46:16.658Z,97915.13
2022-10-23T13:48:43.441Z,97924.47
2022-10-23T13:51:15.017Z,97926.97
2022-10-23T13:53:42.025Z,97920.44
2022-10-23T13:56:12.475Z,97926.47
2022-10-23T13:58:39.511Z,97915.84
2022-10-23T14:01:07.197Z,97919.69
2022-10-23T14:03:34.352Z,97916.38
2022-10-23T14:06:01.436Z,97925.66
2022-10-23T14:08:28.394Z,97923.44
2022-10-23T14:10:55.371Z,97918.72
2022-10-23T14:13:21.991Z,97909.44
2022-10-23T14:15:58.168Z,97925.22
2022-10-23T14:18:24.765Z,97921.47
2022-10-23T14:20:51.374Z,97910.13
2022-10-23T14:23:18.308Z,97914.97
2022-10-23T14:25:44.922Z,97921.75
2022-10-23T14:28:11.568Z,97912.03
2022-10-23T14:30:38.567Z,97909.59
2022-10-23T14:33:05.132Z,97905.84
2022-10-23T14:35:31.781Z,97903.47
2022-10-23T14:37:58.854Z,97901.13
2022-10-23T14:40:25.574Z,97899.84
2022-10-23T14:42:52.287Z,97904.81
2022-10-23T14:45:19.736Z,97898.09
2022-10-23T14:47:46.649Z,97907.16
2022-10-23T14:50:14.095Z,97903.97
2022-10-23T14:52:41.251Z,97905.16
2022-10-23T14:55:08.459Z,97908.78
2022-10-23T14:57:35.108Z,97914.81
2022-10-23T15:00:01.974Z,97923.78
2022-10-23T15:02:28.573Z,97910.97
2022-10-23T15:04:55.585Z,97913.53
2022-10-23T15:07:22.394Z,97927.69
2022-10-23T15:09:50.739Z,97931.25
2022-10-23T15:12:17.726Z,97918.34
2022-10-23T15:14:44.727Z,97915.72
2022-10-23T15:17:15.416Z,97919.91
2022-10-23T15:19:42.555Z,97920.28
2022-10-23T15:22:09.348Z,97912.56
2022-10-23T15:24:36.186Z,97926.16
2022-10-23T15:27:02.880Z,97913.47
2022-10-23T15:29:29.819Z,97905.69
2022-10-23T15:32:01.508Z,97909.53
2022-10-23T15:34:29.254Z,97911.78
2022-10-23T15:36:57.270Z,97912.66
2022-10-23T15:39:26.545Z,97915.97
2022-10-23T15:41:56.091Z,97910.59
2022-10-23T15:44:25.336Z,97918.50
2022-10-23T15:46:52.020Z,97915.84
2022-10-23T15:49:20.239Z,97920.50
2022-10-23T15:51:47.247Z,97917.53
2022-10-23T15:54:19.320Z,97909.16
2022-10-23T15:56:48.360Z,97913.53
2022-10-23T15:59:16.018Z,97918.69
2022-10-23T16:01:42.680Z,97920.06
2022-10-23T16:04:09.786Z,97915.75
2022-10-23T16:06:36.556Z,97925.22
2022-10-23T16:09:03.899Z,97920.88
2022-10-23T16:11:35.013Z,97932.81
2022-10-23T16:14:03.665Z,97925.78
2022-10-23T16:16:31.675Z,97930.41
2022-10-23T16:19:00.719Z,97933.38
2022-10-23T16:21:32.079Z,97936.38
2022-10-23T16:24:00.976Z,97936.38
2022-10-23T16:26:29.717Z,97939.38
2022-10-23T16:28:59.079Z,97944.22
2022-10-23T16:31:26.473Z,97934.72
2022-10-23T16:33:53.900Z,97942.84
2022-10-23T16:36:22.275Z,97945.56
2022-10-23T16:38:48.907Z,97954.75
2022-10-23T16:41:15.801Z,97956.63
2022-10-23T16:43:42.562Z,97951.75
2022-10-23T16:46:12.518Z,97958.50
2022-10-23T16:48:40.261Z,97958.47
2022-10-23T16:51:08.829Z,97969.53
2022-10-23T16:53:35.715Z,97966.53
2022-10-23T16:56:07.985Z,97972.22
2022-10-23T16:58:35.454Z,97964.88
2022-10-23T17:01:06.030Z,97973.00
2022-10-23T17:03:44.645Z,97980.00
2022-10-23T17:06:13.840Z,97976.47
2022-10-23T17:08:41.368Z,97979.38
2022-10-23T17:11:11.917Z,97987.22
2022-10-23T17:13:41.864Z,97977.44
2022-10-23T17:16:10.402Z,97985.00
2022-10-23T17:18:41.289Z,97977.16
2022-10-23T17:21:11.360Z,97990.13
2022-10-23T17:23:38.007Z,97978.44
2022-10-23T17:26:11.810Z,97973.47
2022-10-23T17:28:41.669Z,97985.66
2022-10-23T17:31:19.902Z,97989.69
2022-10-23T17:33:48.112Z,97987.22
2022-10-23T17:36:16.274Z,97990.69
2022-10-23T17:38:43.985Z,97986.88
2022-10-23T17:41:13.100Z,97991.78
2022-10-23T17:43:40.980Z,97983.31
2022-10-23T17:46:10.939Z,97985.00
2022-10-23T17:48:40.172Z,97984.47
2022-10-23T17:51:11.240Z,97987.97
2022-10-23T17:53:40.989Z,97985.72
2022-10-23T17:56:11.122Z,97983.47
2022-10-23T17:58:37.816Z,97976.97
2022-10-23T18:01:08.864Z,97980.16
2022-10-23T18:03:37.860Z,97984.78
2022-10-23T18:06:18.103Z,97980.72
2022-10-23T18:08:45.459Z,97989.91
2022-10-23T18:11:17.089Z,97992.25
2022-10-23T18:13:44.104Z,97985.13
2022-10-23T18:16:11.940Z,97976.66
2022-10-23T18:18:40.935Z,97979.38
2022-10-23T18:21:09.635Z,97985.31
2022-10-23T18:23:37.104Z,97976.84
2022-10-23T18:26:05.183Z,97979.72
2022-10-23T18:28:32.691Z,97979.19
2022-10-23T18:30:59.284Z,97961.81
2022-10-23T18:33:26.645Z,97982.97
2022-10-23T18:35:53.494Z,97984.81
2022-10-23T18:38:21.075Z,97971.78
2022-10-23T18:40:53.944Z,97973.75
2022-10-23T18:43:41.971Z,97980.47
2022-10-23T18:46:08.512Z,97972.25
2022-10-23T18:48:35.811Z,97978.16
2022-10-23T18:51:02.524Z,97964.53
2022-10-23T18:53:29.285Z,97966.41
2022-10-23T18:55:56.307Z,97962.88
2022-10-23T18:58:22.890Z,97956.34
2022-10-23T19:00:50.067Z,97953.34
2022-10-23T19:03:16.892Z,97951.69
2022-10-23T19:05:45.089Z,97951.34
2022-10-23T19:08:12.601Z,97960.84
2022-10-23T19:10:42.482Z,97963.81
2022-10-23T19:13:09.113Z,97944.53
2022-10-23T19:15:37.497Z,97959.06
2022-10-23T19:18:07.138Z,97949.53
2022-10-23T19:20:34.055Z,97947.63
2022-10-23T19:23:02.413Z,97944.59
2022-10-23T19:25:32.962Z,97945.59
2022-10-23T19:28:01.997Z,97941.44
2022-10-23T19:30:29.373Z,97940.69
2022-10-23T19:32:56.189Z,97942.09
2022-10-23T19:35:23.340Z,97944.19
2022-10-23T19:37:50.653Z,97946.34
2022-10-23T19:40:17.882Z,97952.09
2022-10-23T19:42:44.573Z,97944.47
2022-10-23T19:45:14.321Z,97954.25
2022-10-23T19:47:41.483Z,97946.34
2022-10-23T19:50:09.250Z,97948.78
2022-10-23T19:52:36.191Z,97948.22
2022-10-23T19:55:04.336Z,97968.97
2022-10-23T19:57:33.902Z,97943.47
2022-10-23T20:00:01.719Z,97954.78
2022-10-23T20:02:28.852Z,97951.28
2022-10-23T20:04:55.757Z,97942.66
2022-10-23T20:07:22.954Z,97954.34
2022-10-23T20:09:49.699Z,97945.94
2022-10-23T20:12:16.927Z,97953.19
2022-10-23T20:14:43.746Z,97965.34
2022-10-23T20:17:10.651Z,97953.38
2022-10-23T20:19:37.459Z,97955.75
2022-10-23T20:22:04.168Z,97955.09
2022-10-23T20:24:30.991Z,97952.31
2022-10-23T20:26:57.665Z,97957.88
2022-10-23T20:29:25.052Z,97960.88
2022-10-23T20:31:52.382Z,97950.38
2022-10-23T20:34:19.658Z,97951.09
2022-10-23T20:36:51.322Z,97945.63
2022-10-23T20:39:24.744Z,97945.41
2022-10-23T20:41:51.886Z,97943.69
2022-10-23T20:44:19.368Z,97933.38
2022-10-23T20:46:46.374Z,97935.28
2022-10-23T20:49:14.141Z,97931.94
2022-10-23T20:51:41.174Z,97934.88
2022-10-23T20:54:08.147Z,97935.94
2022-10-23T20:56:37.083Z,97928.91
2022-10-23T20:59:11.184Z,97923.19
2022-10-23T21:01:40.678Z,97926.97
2022-10-23T21:04:07.328Z,97929.91
2022-10-23T21:06:46.193Z,97932.28
2022-10-23T21:09:21.813Z,97925.22
2022-10-23T21:11:48.531Z,97936.25
2022-10-23T21:14:15.111Z,97934.63
2022-10-23T21:16:44.600Z,97946.75
2022-10-23T21:19:16.082Z,97946.19
2022-10-23T21:21:43.633Z,97945.88
2022-10-23T21:24:14.884Z,97948.25
2022-10-23T21:26:41.765Z,97937.28
2022-10-23T21:29:23.999Z,97945.13
2022-10-23T21:31:56.465Z,97950.00
2022-10-23T21:34:25.510Z,97939.66
2022-10-23T21:37:12.945Z,97944.28
2022-10-23T21:39:39.222Z,97952.38
2022-10-23T21:42:05.936Z,97963.97
2022-10-23T21:44:32.871Z,97960.03
2022-10-23T21:46:59.709Z,97964.59
2022-10-23T21:49:26.289Z,97958.88
2022-10-23T21:51:55.063Z,97952.34
2022-10-23T21:54:22.012Z,97973.38
2022-10-23T21:56:51.056Z,97960.63
2022-10-23T21:59:20.439Z,97960.63
2022-10-23T22:01:48.755Z,97986.84
2022-10-23T22:04:19.261Z,97985.09
2022-10-23T22:06:47.703Z,97981.47
2022-10-23T22:09:19.548Z,97964.41
2022-10-23T22:11:46.888Z,97974.00
2022-10-23T22:14:13.512Z,97971.56
2022-10-23T22:16:42.122Z,97966.66
2022-10-23T22:19:11.396Z,97961.84
2022-10-23T22:21:38.066Z,97955.91
2022-10-23T22:24:04.927Z,97939.66
2022-10-23T22:26:38.290Z,97947.03
2022-10-23T22:29:11.124Z,97952.16
2022-10-23T22:31:39.378Z,97951.09
2022-10-23T22:34:18.965Z,97939.78
2022-10-23T22:36:54.680Z,97943.59
2022-10-23T22:39:21.588Z,97950.94
2022-10-23T22:41:48.256Z,97938.22
2022-10-23T22:44:15.561Z,97951.75
2022-10-23T22:46:42.604Z,97955.03
2022-10-23T22:49:09.509Z,97943.22
2022-10-23T22:51:37.918Z,97953.16
2022-10-23T22:54:04.914Z,97948.03
2022-10-23T22:56:31.582Z,97932.38
2022-10-23T22:58:58.577Z,97939.72
2022-10-23T23:01:34.962Z,97928.69
2022-10-23T23:04:13.772Z,97929.75
2022-10-23T23:06:46.643Z,97934.59
2022-10-23T23:09:17.901Z,97939.38
2022-10-23T23:11:51.714Z,97927.13
2022-10-23T23:14:23.026Z,97933.91
2022-10-23T23:16:52.270Z,97931.72
2022-10-23T23:19:18.992Z,97927.88
2022-10-23T23:21:45.916Z,97932.44
2022-10-23T23:24:12.638Z,97924.03
2022-10-23T23:26:39.276Z,97928.69
2022-10-23T23:29:06.432Z,97918.66
2022-10-23T23:31:33.065Z,97927.53
2022-10-23T23:33:59.756Z,97910.47
2022-10-23T23:36:27.477Z,97912.81
2022-10-23T23:38:55.441Z,97921.47
2022-10-23T23:41:23.264Z,97939.72
2022-10-23T23:43:50.926Z,97943.94
2022-10-23T23:46:18.155Z,97949.56
2022-10-23T23:48:48.049Z,97942.69
2022-10-23T23:51:16.718Z,97952.03
2022-10-23T23:53:43.471Z,97950.75
2022-10-23T23:56:10.426Z,97945.94
2022-10-23T23:58:37.355Z,97949.91
